Highland Township, Michigan
Current Conditions -  °F | °C
As of 12:53 AM on Tuesday 21 Oct 2014 (Local Time) from KPTK Reporting Station
Overcast Overcast  
Wind Chill:   Ceiling: 2100
Heat Index:   Visibility: 10mi
Dew Point:   Wind: 8mph
Humidity: 86%   Direction: 310°NW
Pressure: 29.87"   Gusts: NA
Location:  42.6632°N, 83.6457°W
Report Text: KPTK 210453Z AUTO 31007KT 10SM SCT012 OVC021 09/07 A2987 RMK AO2 SLP116 T00890067 401280072
Loading
Personal Weather Stations






























Interactive Weather Map
Tropical Storm Tracking
New forecast layout! Learn more

10-Day Weather Forecast

Advertisements
Track Severe Weather on mobile